Time;durP1;ratioP1;P1;durP2;ratioP2;P2;SDS_P1;SDS_P2;PMS_P1;PMS_P2;Temp;Humidity;BMP_temperature;BMP_pressure;BME280_temperature;BME280_humidity;BME280_pressure;Samples;Min_cycle;Max_cycle;Signal;HPM_P1;HPM_P2
2021/08/24 00:00:24;;;;;;;7.32;6.28;;;;;;;24.70;100.00;101060.88;4881827;29;20116;-65
2021/08/24 00:03:10;;;;;;;10.18;6.00;;;;;;;24.97;100.00;101058.06;4880523;29;20048;-65
2021/08/24 00:05:56;;;;;;;8.05;6.10;;;;;;;24.90;100.00;101056.78;4880217;29;20096;-66
2021/08/24 00:08:42;;;;;;;6.32;5.72;;;;;;;25.16;100.00;101059.31;4881202;29;20179;-66
2021/08/24 00:11:28;;;;;;;7.82;5.85;;;;;;;25.00;100.00;101058.69;4884633;29;20120;-65
2021/08/24 00:14:14;;;;;;;9.48;6.10;;;;;;;24.83;100.00;101051.00;4884747;29;20043;-65
2021/08/24 00:17:00;;;;;;;7.30;6.28;;;;;;;25.12;100.00;101048.94;4884148;29;20100;-66
2021/08/24 00:19:46;;;;;;;7.28;6.28;;;;;;;24.88;100.00;101054.25;4883661;29;20033;-67
2021/08/24 00:22:34;;;;;;;7.70;6.10;;;;;;;25.03;100.00;101063.84;4885375;29;20033;-66
2021/08/24 00:25:20;;;;;;;7.25;5.65;;;;;;;25.22;100.00;101052.66;4883485;29;20108;-66
2021/08/24 00:28:06;;;;;;;8.23;6.30;;;;;;;25.19;100.00;101058.25;4870923;29;20032;-66
2021/08/24 00:30:52;;;;;;;7.10;5.72;;;;;;;24.95;100.00;101066.22;4883911;29;20454;-66
2021/08/24 00:33:38;;;;;;;6.72;5.88;;;;;;;24.98;100.00;101062.47;4883780;29;20106;-66
2021/08/24 00:36:24;;;;;;;8.70;6.38;;;;;;;24.94;100.00;101059.16;4884891;29;20032;-66
2021/08/24 00:39:09;;;;;;;8.95;6.18;;;;;;;24.84;100.00;101051.88;4884312;29;20104;-66
2021/08/24 00:41:55;;;;;;;7.55;5.95;;;;;;;25.00;100.00;101060.53;4870353;29;20068;-66
2021/08/24 00:44:46;;;;;;;7.47;5.65;;;;;;;24.63;100.00;101051.56;4885025;29;20033;-66
2021/08/24 00:47:33;;;;;;;11.07;6.00;;;;;;;24.85;100.00;101053.59;4883959;29;20119;-66
2021/08/24 00:50:33;;;;;;;8.80;6.18;;;;;;;25.08;100.00;101058.16;4884566;29;20375;-67
2021/08/24 00:53:23;;;;;;;10.27;6.10;;;;;;;24.65;100.00;101059.50;4883071;29;20057;-66
2021/08/24 00:56:10;;;;;;;8.85;5.85;;;;;;;24.83;100.00;101061.72;4883536;29;20100;-66
2021/08/24 00:58:57;;;;;;;6.78;6.00;;;;;;;24.79;100.00;101059.41;4883275;29;20040;-66
2021/08/24 01:01:44;;;;;;;7.50;6.20;;;;;;;24.51;100.00;101054.22;4883068;29;20099;-66
2021/08/24 01:04:30;;;;;;;8.13;6.20;;;;;;;24.46;100.00;101054.53;4882975;29;20470;-66
2021/08/24 01:07:29;;;;;;;9.68;6.32;;;;;;;24.65;100.00;101055.00;4869127;29;20029;-66
2021/08/24 01:10:23;;;;;;;7.05;6.13;;;;;;;24.48;100.00;101055.28;4883937;29;20044;-67
2021/08/24 01:13:39;;;;;;;9.60;6.60;;;;;;;24.51;100.00;101057.75;4882637;29;20033;-66
2021/08/24 01:16:36;;;;;;;7.95;6.03;;;;;;;24.56;100.00;101057.44;4882848;29;20033;-66
2021/08/24 01:20:02;;;;;;;7.40;5.80;;;;;;;24.26;100.00;101064.91;4870568;29;20029;-67
2021/08/24 01:23:25;;;;;;;7.90;6.30;;;;;;;24.35;100.00;101053.56;4853934;29;20132;-67
2021/08/24 01:26:35;;;;;;;6.85;6.05;;;;;;;24.36;100.00;101057.94;4884376;29;20374;-67
2021/08/24 01:29:32;;;;;;;7.90;6.20;;;;;;;24.53;100.00;101060.31;4869623;29;20462;-66
2021/08/24 01:36:17;;;;;;;8.48;6.47;;;;;;;24.36;100.00;101057.94;4883873;29;20029;-66
2021/08/24 01:39:12;;;;;;;8.88;6.00;;;;;;;24.36;100.00;101049.91;4883129;29;20455;-66
2021/08/24 01:42:07;;;;;;;8.27;6.70;;;;;;;24.11;100.00;101052.56;4882249;29;20040;-66
2021/08/24 01:44:53;;;;;;;8.57;6.88;;;;;;;24.03;100.00;101052.22;4882578;29;20033;-66
2021/08/24 01:47:41;;;;;;;10.75;6.60;;;;;;;24.07;100.00;101051.06;4882572;29;20028;-66
2021/08/24 01:50:39;;;;;;;8.15;6.50;;;;;;;23.90;100.00;101052.16;4882624;29;20098;-66
2021/08/24 01:53:31;;;;;;;7.82;6.30;;;;;;;23.90;100.00;101048.63;4882790;29;20081;-66
2021/08/24 01:58:59;;;;;;;7.53;6.10;;;;;;;24.08;100.00;101039.38;5696420;23;20145;-66
2021/08/24 02:02:13;;;;;;;10.25;6.85;;;;;;;24.01;100.00;101046.97;4906907;29;20099;-67
2021/08/24 02:05:12;;;;;;;8.10;6.63;;;;;;;24.10;100.00;101040.16;4919963;29;20060;-66
2021/08/24 02:08:08;;;;;;;8.00;6.47;;;;;;;23.67;100.00;101035.91;4888419;29;20184;-66
2021/08/24 02:10:56;;;;;;;11.25;7.90;;;;;;;23.90;100.00;101035.25;4902144;29;20099;-66
2021/08/24 02:13:46;;;;;;;10.55;6.70;;;;;;;23.95;100.00;101033.97;4900915;29;20065;-66
2021/08/24 02:16:34;;;;;;;9.32;6.93;;;;;;;23.78;100.00;101026.19;4901777;29;20063;-66
2021/08/24 02:19:25;;;;;;;8.93;6.72;;;;;;;23.88;100.00;101034.47;4901231;29;20103;-66
2021/08/24 02:22:37;;;;;;;9.23;6.43;;;;;;;24.16;100.00;101026.31;4901964;29;20103;-66
2021/08/24 02:25:28;;;;;;;8.60;7.20;;;;;;;24.35;100.00;101024.09;4900578;29;20096;-66
2021/08/24 02:28:20;;;;;;;9.18;6.60;;;;;;;24.26;100.00;101020.22;4901775;29;20362;-67
2021/08/24 02:31:41;;;;;;;9.70;6.82;;;;;;;24.16;100.00;101021.84;4901743;29;20029;-66
2021/08/24 02:34:43;;;;;;;10.45;6.85;;;;;;;24.06;100.00;101025.25;4875844;29;20044;-66
2021/08/24 02:37:41;;;;;;;8.80;7.05;;;;;;;24.08;100.00;101020.63;4901520;29;20469;-66
2021/08/24 02:44:21;;;;;;;10.18;7.00;;;;;;;23.56;100.00;101014.34;4901613;29;20132;-67
2021/08/24 02:47:08;;;;;;;10.88;7.60;;;;;;;23.64;100.00;101009.34;4900369;29;20028;-67
2021/08/24 02:49:54;;;;;;;11.55;8.02;;;;;;;23.51;100.00;101013.81;4900320;29;20384;-66
2021/08/24 02:52:40;;;;;;;10.68;7.38;;;;;;;23.49;100.00;101008.56;4900763;29;20029;-67
2021/08/24 02:55:26;;;;;;;12.00;8.30;;;;;;;23.23;100.00;101023.63;4901240;29;20064;-67
2021/08/24 02:58:11;;;;;;;9.05;8.13;;;;;;;23.16;100.00;101018.75;4900717;29;20533;-66
2021/08/24 03:00:57;;;;;;;11.10;9.18;;;;;;;23.48;100.00;101011.31;4900845;29;20564;-67
2021/08/24 03:03:43;;;;;;;12.30;9.65;;;;;;;23.39;100.00;101015.47;4900348;29;20047;-66
2021/08/24 03:06:32;;;;;;;10.63;8.93;;;;;;;23.28;100.00;101021.50;4900046;29;20426;-66
2021/08/24 03:09:20;;;;;;;11.32;8.98;;;;;;;22.98;100.00;101023.44;4900285;29;20047;-66
2021/08/24 03:12:36;;;;;;;14.55;8.90;;;;;;;23.03;100.00;101028.53;4899849;29;20037;-66
2021/08/24 03:15:45;;;;;;;12.43;9.07;;;;;;;23.22;100.00;101027.25;4901152;29;20115;-66
2021/08/24 03:18:35;;;;;;;12.48;8.70;;;;;;;22.91;100.00;101026.63;4900861;29;20044;-66
2021/08/24 03:21:26;;;;;;;12.43;8.32;;;;;;;22.96;100.00;101027.19;4901415;29;20039;-66
2021/08/24 03:24:15;;;;;;;10.38;8.70;;;;;;;22.65;100.00;101033.59;4887528;29;20036;-66
2021/08/24 03:27:01;;;;;;;10.88;9.02;;;;;;;22.82;100.00;101029.84;4900131;29;20092;-65
2021/08/24 03:30:08;;;;;;;13.32;9.05;;;;;;;22.44;100.00;101026.88;4899711;29;20059;-66
2021/08/24 03:32:54;;;;;;;18.15;10.13;;;;;;;22.32;100.00;101032.97;4899952;29;20043;-66
2021/08/24 03:35:40;;;;;;;24.65;10.75;;;;;;;22.32;100.00;101032.97;4899761;29;20032;-66
2021/08/24 03:38:26;;;;;;;20.10;10.30;;;;;;;22.51;100.00;101032.72;4886633;29;20024;-66
2021/08/24 03:41:12;;;;;;;14.02;10.07;;;;;;;22.16;100.00;101037.50;4899634;29;20533;-66
2021/08/24 03:43:58;;;;;;;17.75;10.90;;;;;;;22.06;100.00;101038.16;4899248;29;20111;-66
2021/08/24 03:46:43;;;;;;;14.40;10.38;;;;;;;22.09;100.00;101043.28;4899935;29;20108;-66
2021/08/24 03:49:29;;;;;;;20.45;11.38;;;;;;;22.45;100.00;101046.41;4899741;29;20024;-66
2021/08/24 03:52:15;;;;;;;18.55;11.18;;;;;;;22.23;100.00;101044.19;4898428;29;20120;-67
2021/08/24 03:55:01;;;;;;;27.10;11.73;;;;;;;22.22;100.00;101039.78;4899306;29;20029;-66
2021/08/24 03:57:47;;;;;;;19.30;11.00;;;;;;;22.35;100.00;101054.13;4899336;29;20028;-66
2021/08/24 04:00:32;;;;;;;18.38;10.90;;;;;;;22.35;100.00;101048.78;4898875;29;20136;-66
2021/08/24 04:03:18;;;;;;;18.73;10.70;;;;;;;22.00;100.00;101052.72;4899648;29;20039;-66
2021/08/24 04:06:04;;;;;;;23.45;11.48;;;;;;;22.25;100.00;101054.78;4885700;29;20109;-67
2021/08/24 04:08:50;;;;;;;17.35;10.93;;;;;;;22.31;100.00;101051.75;4899301;29;20032;-66
2021/08/24 04:11:35;;;;;;;20.02;11.63;;;;;;;22.55;100.00;101056.47;4898975;29;20346;-66
2021/08/24 04:14:21;;;;;;;21.50;11.43;;;;;;;22.29;100.00;101059.84;4899230;29;20111;-66
2021/08/24 04:17:08;;;;;;;18.55;11.48;;;;;;;22.27;100.00;101050.22;4884833;29;20127;-67
2021/08/24 04:19:55;;;;;;;21.48;12.02;;;;;;;22.35;100.00;101058.63;4899092;29;20457;-66
2021/08/24 04:22:45;;;;;;;20.27;11.35;;;;;;;22.34;100.00;101059.56;4885334;29;20048;-67
2021/08/24 04:25:31;;;;;;;16.95;11.68;;;;;;;22.35;100.00;101067.47;4898861;29;20460;-66
2021/08/24 04:28:25;;;;;;;18.05;11.55;;;;;;;22.25;100.00;101074.31;4898877;29;20119;-66
2021/08/24 04:31:14;;;;;;;19.00;11.30;;;;;;;22.69;100.00;101068.97;4898878;29;20029;-66
2021/08/24 04:34:00;;;;;;;17.35;11.38;;;;;;;22.86;100.00;101068.78;4899196;29;20029;-66
2021/08/24 04:36:46;;;;;;;14.15;11.20;;;;;;;22.38;100.00;101074.47;4898923;29;20036;-66
2021/08/24 04:39:32;;;;;;;16.25;10.82;;;;;;;22.28;100.00;101076.81;4899272;29;20115;-67
2021/08/24 04:42:17;;;;;;;15.52;11.10;;;;;;;22.14;100.00;101076.75;4884709;29;20111;-66
2021/08/24 04:45:05;;;;;;;15.25;10.25;;;;;;;22.62;100.00;101075.66;4899099;29;20039;-66
2021/08/24 04:47:51;;;;;;;16.33;10.95;;;;;;;22.77;100.00;101082.72;4899105;29;20099;-66
2021/08/24 04:50:36;;;;;;;15.20;9.93;;;;;;;23.00;100.00;101077.69;4899214;29;20075;-66
2021/08/24 04:53:24;;;;;;;17.23;11.35;;;;;;;22.95;100.00;101074.41;4898790;29;20037;-66
2021/08/24 04:56:10;;;;;;;19.42;11.48;;;;;;;22.93;100.00;101073.66;4900401;29;20096;-66
2021/08/24 04:58:56;;;;;;;17.65;11.05;;;;;;;22.93;100.00;101079.03;4902272;29;20390;-67
2021/08/24 05:01:41;;;;;;;15.35;10.43;;;;;;;23.33;100.00;101072.03;4902139;29;20376;-67
2021/08/24 05:04:27;;;;;;;15.68;10.77;;;;;;;22.96;100.00;101072.63;4902533;29;20037;-67
2021/08/24 05:07:13;;;;;;;17.23;9.63;;;;;;;23.20;100.00;101066.59;4902031;29;20377;-66
2021/08/24 05:09:59;;;;;;;18.40;10.60;;;;;;;23.40;100.00;101079.53;4888603;29;20054;-66
2021/08/24 05:12:45;;;;;;;17.27;10.45;;;;;;;22.95;100.00;101078.94;4902015;29;20029;-66
2021/08/24 05:15:31;;;;;;;19.50;11.07;;;;;;;22.91;100.00;101070.22;4902323;29;20513;-66
2021/08/24 05:18:17;;;;;;;15.13;10.98;;;;;;;22.84;100.00;101074.25;4902294;29;20039;-67
2021/08/24 05:21:07;;;;;;;14.93;10.43;;;;;;;23.30;100.00;101073.09;4902568;29;20359;-67
2021/08/24 05:23:53;;;;;;;18.23;10.88;;;;;;;23.04;100.00;101087.22;4902328;29;20503;-66
2021/08/24 05:26:38;;;;;;;17.02;11.15;;;;;;;23.40;100.00;101084.06;4888755;29;20423;-66
2021/08/24 05:29:24;;;;;;;15.27;11.70;;;;;;;23.27;100.00;101083.97;4901700;29;20024;-66
2021/08/24 05:32:10;;;;;;;17.05;11.32;;;;;;;22.99;100.00;101080.44;4901939;29;20039;-66
2021/08/24 05:34:56;;;;;;;15.55;11.35;;;;;;;22.99;100.00;101083.13;4901839;29;20409;-66
2021/08/24 05:37:41;;;;;;;16.23;10.93;;;;;;;23.48;100.00;101079.91;4901549;29;20063;-66
2021/08/24 05:40:27;;;;;;;18.10;12.48;;;;;;;23.52;100.00;101080.59;4901627;29;20028;-66
2021/08/24 05:43:13;;;;;;;15.02;10.15;;;;;;;23.90;100.00;101078.06;4901453;29;20051;-66
2021/08/24 05:46:03;;;;;;;16.45;11.25;;;;;;;23.40;100.00;101076.88;4901629;29;20044;-66
2021/08/24 05:48:48;;;;;;;18.90;10.68;;;;;;;23.48;100.00;101076.41;4901148;29;20346;-66
2021/08/24 05:52:11;;;;;;;14.88;10.00;;;;;;;23.93;100.00;101077.88;4901140;29;20044;-67
2021/08/24 05:54:57;;;;;;;14.35;9.73;;;;;;;24.00;100.00;101080.06;4888035;29;20327;-66
2021/08/24 05:57:43;;;;;;;12.80;9.07;;;;;;;23.97;100.00;101080.25;4902385;29;20084;-66
2021/08/24 06:00:28;;;;;;;15.07;9.18;;;;;;;24.34;100.00;101086.69;4888382;29;20112;-66
2021/08/24 06:03:14;;;;;;;12.65;9.18;;;;;;;24.55;100.00;101083.34;4901234;29;20033;-66
2021/08/24 06:06:00;;;;;;;14.13;8.25;;;;;;;24.39;100.00;101085.38;4902040;29;20032;-67
2021/08/24 06:08:46;;;;;;;14.02;8.40;;;;;;;24.81;100.00;101081.56;4901989;29;20033;-65
2021/08/24 06:11:44;;;;;;;10.50;7.85;;;;;;;24.47;100.00;101088.38;4900909;29;20100;-66
2021/08/24 06:14:30;;;;;;;10.05;7.80;;;;;;;24.68;100.00;101078.91;4901856;29;20032;-67
2021/08/24 06:17:16;;;;;;;10.80;7.95;;;;;;;25.20;100.00;101082.25;4900657;29;20081;-67
2021/08/24 06:20:02;;;;;;;9.85;7.43;;;;;;;25.09;100.00;101086.69;4901466;29;20491;-67
2021/08/24 06:22:48;;;;;;;10.98;7.95;;;;;;;25.21;100.00;101081.31;4901468;29;20100;-66
2021/08/24 06:25:34;;;;;;;9.57;7.97;;;;;;;25.18;100.00;101078.84;4887860;29;20103;-66
2021/08/24 06:28:19;;;;;;;9.50;7.30;;;;;;;24.86;100.00;101082.97;4901340;29;20041;-66
2021/08/24 06:31:06;;;;;;;11.13;7.68;;;;;;;25.18;100.00;101075.31;4901190;29;20036;-66
2021/08/24 06:33:53;;;;;;;11.25;7.88;;;;;;;25.44;100.00;101083.19;4901019;29;20399;-66
2021/08/24 06:36:40;;;;;;;12.23;7.65;;;;;;;25.78;100.00;101082.44;4900269;29;20033;-67
2021/08/24 06:39:26;;;;;;;11.60;7.22;;;;;;;25.89;100.00;101078.97;4901966;29;20034;-67
2021/08/24 06:42:13;;;;;;;10.55;7.00;;;;;;;26.00;100.00;101073.69;4886870;29;20025;-66
2021/08/24 06:44:59;;;;;;;9.45;7.00;;;;;;;26.42;100.00;101082.00;4887010;29;20047;-66
2021/08/24 06:47:45;;;;;;;9.95;6.43;;;;;;;26.63;100.00;101079.50;4900489;29;20359;-67
2021/08/24 06:50:31;;;;;;;9.68;6.85;;;;;;;26.19;100.00;101076.66;4900781;29;20036;-66
2021/08/24 06:53:18;;;;;;;8.95;6.43;;;;;;;26.38;100.00;101085.91;4886969;29;20029;-67
2021/08/24 06:56:04;;;;;;;7.50;6.20;;;;;;;26.84;98.04;101093.97;4901101;29;20036;-66
2021/08/24 06:58:50;;;;;;;9.45;6.45;;;;;;;26.60;96.90;101085.97;4887843;29;20091;-66
2021/08/24 07:01:38;;;;;;;11.63;5.93;;;;;;;26.49;97.03;101085.06;4901041;29;20059;-66
2021/08/24 07:04:24;;;;;;;9.95;6.35;;;;;;;27.00;94.02;101089.06;4900314;29;20036;-66
2021/08/24 07:07:10;;;;;;;10.90;6.25;;;;;;;27.59;90.28;101095.91;4900751;29;20477;-66
2021/08/24 07:09:56;;;;;;;10.43;5.78;;;;;;;26.98;92.12;101093.72;4900253;29;20043;-69
2021/08/24 07:12:43;;;;;;;6.72;5.72;;;;;;;27.15;91.77;101090.53;4901049;29;20458;-66
2021/08/24 07:15:31;;;;;;;7.72;6.25;;;;;;;27.32;90.82;101085.53;4900229;29;20036;-67
2021/08/24 07:18:16;;;;;;;8.48;6.65;;;;;;;27.30;91.25;101092.03;4900884;29;20032;-66
2021/08/24 07:21:03;;;;;;;9.70;6.70;;;;;;;27.64;89.21;101084.75;4900198;29;20025;-66
2021/08/24 07:23:49;;;;;;;11.88;6.82;;;;;;;28.15;90.29;101091.19;4900118;29;20043;-66
2021/08/24 07:26:35;;;;;;;12.07;6.72;;;;;;;28.11;95.76;101092.44;4887760;29;20024;-66
2021/08/24 07:29:21;;;;;;;9.02;6.68;;;;;;;27.39;100.00;101097.53;4887014;29;20485;-66
2021/08/24 07:32:08;;;;;;;11.10;6.95;;;;;;;27.89;100.00;101085.34;4899908;29;20032;-67
2021/08/24 07:34:54;;;;;;;9.32;7.00;;;;;;;28.07;100.00;101091.00;4901094;29;20033;-67
2021/08/24 07:37:40;;;;;;;9.38;7.13;;;;;;;27.94;100.00;101077.72;4899575;29;20195;-66
2021/08/24 07:40:26;;;;;;;11.38;6.82;;;;;;;28.48;99.24;101089.22;4900850;29;20068;-66
2021/08/24 07:43:13;;;;;;;8.75;6.95;;;;;;;28.18;99.22;101080.16;4899435;29;20366;-67
2021/08/24 07:45:59;;;;;;;8.55;6.38;;;;;;;28.65;94.31;101093.19;4899980;29;20039;-66
2021/08/24 07:48:45;;;;;;;10.05;6.50;;;;;;;28.76;93.72;101088.56;4899574;29;20025;-66
2021/08/24 07:51:31;;;;;;;8.60;6.43;;;;;;;28.83;90.26;101088.88;4900081;29;20076;-66
2021/08/24 07:54:24;;;;;;;13.45;7.00;;;;;;;29.21;87.33;101084.53;4899552;29;20085;-66
2021/08/24 07:57:10;;;;;;;9.23;6.43;;;;;;;29.76;83.08;101084.00;4899537;29;20029;-67
2021/08/24 07:59:59;;;;;;;8.68;6.20;;;;;;;29.60;82.36;101081.00;4900196;29;20060;-69
2021/08/24 08:02:45;;;;;;;7.63;6.25;;;;;;;30.37;76.80;101082.75;4886737;29;20029;-66
2021/08/24 08:05:31;;;;;;;18.73;6.70;;;;;;;29.98;74.18;101078.31;4886306;29;20032;-66
2021/08/24 08:08:17;;;;;;;7.97;5.78;;;;;;;30.52;69.75;101078.63;4899477;29;20039;-67
2021/08/24 08:11:04;;;;;;;7.97;5.53;;;;;;;30.89;67.90;101084.94;4887171;29;20365;-67
2021/08/24 08:13:50;;;;;;;7.43;5.88;;;;;;;30.46;66.55;101076.47;4899391;29;20036;-67
2021/08/24 08:16:36;;;;;;;7.13;5.47;;;;;;;30.05;66.28;101068.66;4899122;29;20340;-66
2021/08/24 08:19:22;;;;;;;7.78;5.32;;;;;;;30.63;62.45;101066.78;4898572;29;20087;-66
2021/08/24 08:22:09;;;;;;;13.68;5.50;;;;;;;30.97;60.36;101068.81;4899359;29;20111;-67
2021/08/24 08:24:54;;;;;;;19.73;5.50;;;;;;;30.89;57.88;101076.84;4899953;29;20032;-67
2021/08/24 08:27:40;;;;;;;15.27;5.22;;;;;;;31.34;56.84;101068.84;4900261;29;20043;-66
2021/08/24 08:30:26;;;;;;;5.60;5.07;;;;;;;30.92;58.20;101075.69;4900997;29;20434;-66
2021/08/24 08:33:13;;;;;;;6.10;4.80;;;;;;;31.80;55.44;101060.56;4904640;29;20450;-67
2021/08/24 08:35:59;;;;;;;6.97;4.93;;;;;;;32.02;52.06;101067.41;4902771;29;20060;-67
2021/08/24 08:38:44;;;;;;;5.82;4.65;;;;;;;31.82;51.06;101060.44;4890484;29;20040;-67
2021/08/24 08:41:39;;;;;;;8.20;4.80;;;;;;;32.03;49.52;101060.97;4889399;29;20032;-67
2021/08/24 08:44:42;;;;;;;7.40;4.72;;;;;;;31.90;51.26;101055.09;4903203;29;20088;-67
2021/08/24 08:47:31;;;;;;;5.90;4.82;;;;;;;32.40;50.30;101054.38;4903431;29;20373;-67
2021/08/24 08:50:39;;;;;;;18.20;4.85;;;;;;;32.20;48.71;101050.09;4903441;29;20115;-67
2021/08/24 08:53:43;;;;;;;8.98;4.93;;;;;;;32.42;48.15;101055.03;4888886;29;20024;-67
2021/08/24 08:57:07;;;;;;;12.27;4.65;;;;;;;32.13;51.67;101050.88;4890085;29;20485;-66
2021/08/24 09:00:25;;;;;;;7.18;4.25;;;;;;;32.25;49.98;101053.19;4902371;29;20060;-66
2021/08/24 09:03:17;;;;;;;6.32;4.40;;;;;;;32.45;46.65;101051.16;4903770;29;20044;-67
2021/08/24 09:06:06;;;;;;;7.00;4.60;;;;;;;31.66;51.24;101046.69;4901712;29;20028;-66
2021/08/24 09:09:42;;;;;;;7.53;4.20;;;;;;;32.05;50.56;101043.53;4902339;29;20033;-67
2021/08/24 09:12:30;;;;;;;5.57;4.38;;;;;;;31.99;48.41;101043.31;4902792;29;20036;-66
2021/08/24 09:15:20;;;;;;;6.15;4.45;;;;;;;31.78;49.06;101035.47;4902409;29;20442;-65
2021/08/24 09:18:15;;;;;;;5.93;4.68;;;;;;;31.55;48.45;101031.50;4903089;29;20032;-67
2021/08/24 09:21:05;;;;;;;6.82;4.60;;;;;;;32.06;48.67;101036.25;4903967;29;20127;-68
2021/08/24 09:23:55;;;;;;;6.70;4.50;;;;;;;32.27;48.76;101025.91;4901994;29;20099;-67
2021/08/24 09:27:05;;;;;;;8.05;4.78;;;;;;;32.50;48.50;101027.13;4901903;29;20073;-67
2021/08/24 09:29:51;;;;;;;4.85;4.43;;;;;;;32.73;47.49;101026.44;4889238;29;20411;-67
2021/08/24 09:32:37;;;;;;;5.32;4.18;;;;;;;32.30;47.50;101028.34;4901850;29;20039;-67
2021/08/24 09:35:34;;;;;;;6.40;4.50;;;;;;;32.22;49.51;101026.38;4901800;29;20033;-66
2021/08/24 09:38:24;;;;;;;5.15;4.55;;;;;;;32.29;51.43;101023.88;4901749;29;20028;-67
2021/08/24 09:41:27;;;;;;;5.57;4.72;;;;;;;32.16;52.92;101013.47;4902429;29;20024;-66
2021/08/24 09:44:25;;;;;;;5.07;4.45;;;;;;;32.71;52.17;101022.16;4888846;29;20044;-66
2021/08/24 09:47:18;;;;;;;13.40;4.78;;;;;;;32.34;52.17;101024.31;4901626;29;20036;-67
2021/08/24 09:50:16;;;;;;;6.97;5.00;;;;;;;32.58;51.88;101016.34;4901266;29;20494;-67
2021/08/24 09:53:35;;;;;;;7.88;4.85;;;;;;;31.92;54.22;101015.97;4902864;29;20359;-66
2021/08/24 09:56:23;;;;;;;9.35;5.88;;;;;;;32.69;52.72;101005.19;4902448;29;20086;-67
2021/08/24 09:59:11;;;;;;;7.70;5.05;;;;;;;32.32;52.83;101000.06;4889576;29;20382;-68
2021/08/24 10:01:59;;;;;;;5.43;4.70;;;;;;;31.51;54.46;100992.16;4901246;29;20027;-66
2021/08/24 10:04:50;;;;;;;7.72;4.93;;;;;;;32.12;53.07;100992.22;4889324;29;20036;-68
2021/08/24 10:07:58;;;;;;;7.75;5.00;;;;;;;32.05;53.66;100993.84;4902301;29;20025;-68
2021/08/24 10:10:44;;;;;;;8.65;4.70;;;;;;;32.16;54.90;100986.34;4902600;29;20032;-67
2021/08/24 10:13:36;;;;;;;8.68;4.60;;;;;;;32.17;53.55;100990.75;4901082;29;20032;-67
2021/08/24 10:16:24;;;;;;;10.90;5.20;;;;;;;32.08;55.20;100983.56;4901357;29;20402;-67
2021/08/24 10:19:22;;;;;;;7.43;5.00;;;;;;;32.17;54.38;100993.47;4900848;29;20041;-66
2021/08/24 10:22:23;;;;;;;9.55;4.80;;;;;;;32.42;53.77;100991.81;4888539;29;20031;-67
2021/08/24 10:25:20;;;;;;;5.70;4.38;;;;;;;32.65;53.64;100982.09;4900931;29;20024;-67
2021/08/24 10:28:12;;;;;;;8.63;4.78;;;;;;;32.44;53.84;100984.34;4889341;29;20113;-67
2021/08/24 10:31:00;;;;;;;5.70;4.70;;;;;;;32.38;52.70;100980.41;4901198;29;20056;-67
2021/08/24 10:33:59;;;;;;;5.82;5.05;;;;;;;32.52;52.77;100978.97;4888309;29;20361;-67
2021/08/24 10:36:46;;;;;;;7.20;5.10;;;;;;;32.46;54.59;100971.50;4888016;29;20377;-68
2021/08/24 10:39:32;;;;;;;5.57;4.72;;;;;;;32.42;52.69;100973.66;4900780;29;20417;-68
2021/08/24 10:42:28;;;;;;;6.65;4.80;;;;;;;32.20;46.48;100962.44;4900543;29;20056;-69
2021/08/24 10:45:26;;;;;;;7.15;4.47;;;;;;;32.62;50.33;100972.41;4888166;29;20037;-69
2021/08/24 10:48:18;;;;;;;6.75;4.55;;;;;;;32.97;48.19;100960.56;4887772;29;20028;-68
2021/08/24 10:51:16;;;;;;;5.57;4.20;;;;;;;32.78;47.88;100972.50;4888104;29;20068;-68
2021/08/24 10:54:17;;;;;;;6.68;4.18;;;;;;;32.89;48.79;100971.38;4901097;29;20029;-67
2021/08/24 10:57:36;;;;;;;7.13;4.50;;;;;;;33.19;48.08;100960.78;5484253;23;20053;-67
2021/08/24 11:00:55;;;;;;;7.50;4.60;;;;;;;32.92;47.60;100952.91;4900636;29;20108;-66
2021/08/24 11:03:59;;;;;;;10.60;4.85;;;;;;;32.81;47.15;100953.22;4900257;29;20055;-66
2021/08/24 11:07:00;;;;;;;6.70;4.22;;;;;;;33.08;46.22;100941.25;4886774;29;20079;-67
2021/08/24 11:09:58;;;;;;;6.63;4.32;;;;;;;32.91;46.52;100948.47;4881126;29;20032;-67
2021/08/24 11:13:19;;;;;;;6.75;4.47;;;;;;;33.16;46.82;100947.56;4880520;29;20176;-67
2021/08/24 11:16:28;;;;;;;9.15;4.45;;;;;;;32.77;43.26;100948.22;4880695;29;20327;-68
2021/08/24 11:19:34;;;;;;;5.35;4.30;;;;;;;33.20;43.37;100942.63;4882275;29;20048;-67
2021/08/24 11:26:16;;;;;;;6.03;4.88;;;;;;;33.30;43.82;100935.22;4882065;29;20033;-69
2021/08/24 11:29:57;;;;;;;9.63;4.68;;;;;;;33.67;43.16;100932.91;4881017;29;20427;-69
2021/08/24 11:32:46;;;;;;;4.72;3.97;;;;;;;33.51;42.53;100939.16;4845994;29;20056;-69
2021/08/24 11:35:48;;;;;;;7.57;4.25;;;;;;;33.75;42.18;100927.47;4880366;29;20029;-68
2021/08/24 11:38:43;;;;;;;5.22;4.40;;;;;;;33.79;43.10;100920.66;4867629;29;20033;-69
2021/08/24 11:41:29;;;;;;;8.55;4.78;;;;;;;33.46;43.22;100925.22;4881326;29;20043;-69
2021/08/24 11:44:24;;;;;;;5.97;4.80;;;;;;;33.50;42.96;100923.88;4880489;29;20112;-69
2021/08/24 11:47:17;;;;;;;5.85;4.75;;;;;;;33.49;42.88;100924.03;4880903;29;20457;-67
2021/08/24 11:50:11;;;;;;;5.15;4.50;;;;;;;33.76;42.32;100915.56;4880507;29;20025;-67
2021/08/24 11:53:02;;;;;;;7.07;4.82;;;;;;;33.97;42.29;100913.19;4881300;29;20029;-67
2021/08/24 11:55:56;;;;;;;7.25;4.60;;;;;;;33.94;42.83;100908.94;4881708;29;20056;-67
2021/08/24 11:58:51;;;;;;;8.43;4.35;;;;;;;34.36;41.13;100917.72;4880436;29;20048;-69
2021/08/24 12:01:37;;;;;;;4.72;4.05;;;;;;;34.35;40.70;100923.38;4880027;29;20470;-68
2021/08/24 12:04:26;;;;;;;6.07;4.30;;;;;;;33.91;40.66;100906.56;4880991;29;20044;-68
2021/08/24 12:07:22;;;;;;;6.15;4.68;;;;;;;33.77;41.16;100909.09;4883885;29;20033;-67
2021/08/24 12:10:30;;;;;;;7.40;4.47;;;;;;;33.53;42.26;100900.94;4884527;29;20032;-67
2021/08/24 12:13:32;;;;;;;6.10;4.55;;;;;;;33.16;43.26;100895.97;4883813;29;20080;-67
2021/08/24 12:16:30;;;;;;;5.57;4.10;;;;;;;33.91;42.62;100901.13;4884258;29;20076;-67
2021/08/24 12:19:23;;;;;;;12.38;4.38;;;;;;;33.93;41.89;100898.25;4883790;29;20040;-67
2021/08/24 12:22:12;;;;;;;5.85;4.30;;;;;;;34.10;42.03;100900.75;4883759;29;20029;-67
2021/08/24 12:25:03;;;;;;;6.03;4.40;;;;;;;33.74;41.10;100891.25;4883800;29;20187;-67
2021/08/24 12:27:57;;;;;;;8.80;4.57;;;;;;;33.92;42.04;100891.97;4885853;29;20041;-67
2021/08/24 12:30:55;;;;;;;6.28;4.30;;;;;;;33.80;41.98;100890.59;4883700;29;20037;-67
2021/08/24 12:33:43;;;;;;;10.15;4.63;;;;;;;33.94;42.31;100889.91;4870741;29;20044;-67
2021/08/24 12:36:29;;;;;;;7.15;4.53;;;;;;;34.13;42.09;100888.69;4883475;29;20132;-68
2021/08/24 12:39:41;;;;;;;5.10;4.40;;;;;;;34.38;41.09;100885.75;4870445;29;20041;-67
2021/08/24 12:42:37;;;;;;;5.95;4.28;;;;;;;34.24;40.65;100880.16;4884135;29;20159;-66
2021/08/24 12:45:25;;;;;;;4.20;3.80;;;;;;;34.08;40.58;100885.63;4870169;29;20108;-67
2021/08/24 12:48:18;;;;;;;5.55;4.10;;;;;;;33.73;40.76;100891.44;4883528;29;20116;-66
2021/08/24 12:51:06;;;;;;;6.55;4.18;;;;;;;34.10;40.10;100887.16;4883486;29;20041;-67
2021/08/24 12:53:53;;;;;;;6.60;3.83;;;;;;;34.19;39.06;100886.09;4884869;29;20450;-67
2021/08/24 12:56:50;;;;;;;7.00;4.38;;;;;;;33.76;37.84;100878.34;4883155;29;20088;-67
2021/08/24 12:59:40;;;;;;;7.95;4.18;;;;;;;33.56;37.26;100878.88;4883693;29;20029;-67
2021/08/24 13:02:48;;;;;;;4.53;3.65;;;;;;;33.94;37.00;100879.03;4872247;29;20028;-67
2021/08/24 13:05:38;;;;;;;4.70;4.00;;;;;;;33.73;36.07;100875.97;4882957;29;20067;-67
2021/08/24 13:08:27;;;;;;;4.80;4.20;;;;;;;33.73;36.48;100873.25;4883603;29;20052;-67
2021/08/24 13:11:30;;;;;;;8.43;4.00;;;;;;;33.47;36.59;100871.75;4883438;29;20041;-67
2021/08/24 13:14:53;;;;;;;4.75;4.03;;;;;;;33.54;36.76;100868.16;4885625;29;20119;-80
2021/08/24 13:17:46;;;;;;;4.70;3.88;;;;;;;33.60;37.66;100866.63;4866088;29;20087;-67
2021/08/24 13:20:38;;;;;;;9.35;4.20;;;;;;;33.24;37.15;100862.50;4883445;29;20032;-67
2021/08/24 13:23:35;;;;;;;6.95;4.07;;;;;;;33.57;36.71;100858.81;4884989;29;20423;-69